Time;durP1;ratioP1;P1;durP2;ratioP2;P2;SDS_P1;SDS_P2;PMS_P1;PMS_P2;Temp;Humidity;BMP_temperature;BMP_pressure;BME280_temperature;BME280_humidity;BME280_pressure;Samples;Min_cycle;Max_cycle;Signal;HPM_P1;HPM_P2
2022/09/28 00:01:24;;;;;;;;;;;;;;;10.60;74.50;99091.17;1672287;84;20205;-79
2022/09/28 00:04:08;;;;;;;;;;;;;;;10.56;74.53;99088.32;1666088;84;20189;-79
2022/09/28 00:06:53;;;;;;;;;;;;;;;10.51;74.46;99085.08;1689142;84;20206;-79
2022/09/28 00:09:38;;;;;;;;;;;;;;;10.42;74.50;99083.31;1663781;84;20217;-79
2022/09/28 00:12:22;;;;;;;;;;;;;;;10.35;74.53;99080.16;1661169;84;20330;-79
2022/09/28 00:15:08;;;;;;;;;;;;;;;10.29;74.52;99079.11;1647945;84;20231;-79
2022/09/28 00:17:52;;;;;;;;;;;;;;;10.24;74.49;99076.70;1670317;84;20209;-79
2022/09/28 00:20:37;;;;;;;;;;;;;;;10.21;74.59;99072.95;1647236;84;20213;-79
2022/09/28 00:23:21;;;;;;;;;;;;;;;10.18;74.56;99075.62;1656070;84;20194;-79
2022/09/28 00:26:06;;;;;;;;;;;;;;;10.12;74.52;99069.84;1643265;84;20155;-79
2022/09/28 00:28:57;;;;;;;;;;;;;;;10.05;74.52;99065.37;1650823;84;20234;-79
2022/09/28 00:31:42;;;;;;;;;;;;;;;9.99;74.54;99062.18;1641556;84;20195;-79
2022/09/28 00:34:30;;;;;;;;;;;;;;;9.94;74.55;99064.94;1663231;84;20615;-79
2022/09/28 00:37:14;;;;;;;;;;;;;;;9.90;74.54;99059.50;1643809;84;20444;-79
2022/09/28 00:40:00;;;;;;;;;;;;;;;9.88;74.59;99060.01;1650897;85;20134;-78
2022/09/28 00:42:45;;;;;;;;;;;;;;;9.84;74.49;99058.02;1656430;85;20192;-78
2022/09/28 00:45:30;;;;;;;;;;;;;;;9.76;74.58;99061.34;1656147;85;20201;-78
2022/09/28 00:48:14;;;;;;;;;;;;;;;9.73;74.58;99060.16;1641738;85;20253;-78
2022/09/28 00:51:02;;;;;;;;;;;;;;;9.70;74.62;99055.11;1665939;85;20210;-78
2022/09/28 00:53:48;;;;;;;;;;;;;;;9.68;74.63;99056.06;1632754;86;20187;-78
2022/09/28 00:56:35;;;;;;;;;;;;;;;9.63;74.55;99051.08;1614054;86;20215;-79
2022/09/28 00:59:23;;;;;;;;;;;;;;;9.60;74.59;99049.90;1654647;86;20474;-79
2022/09/28 01:02:09;;;;;;;;;;;;;;;9.56;74.56;99056.07;1644643;84;20213;-79
2022/09/28 01:04:54;;;;;;;;;;;;;;;9.51;74.55;99058.81;1628869;86;20211;-79
2022/09/28 01:07:39;;;;;;;;;;;;;;;9.47;74.57;99058.98;1657352;86;20134;-79
2022/09/28 01:10:24;;;;;;;;;;;;;;;9.44;74.57;99057.80;1627064;85;20183;-79
2022/09/28 01:13:11;;;;;;;;;;;;;;;9.41;74.59;99064.36;1665571;85;20182;-79
2022/09/28 01:16:06;;;;;;;;;;;;;;;9.38;74.63;99063.19;1660699;85;20189;-79
2022/09/28 01:19:11;;;;;;;;;;;;;;;9.36;74.67;99065.02;1638378;85;20197;-79
2022/09/28 01:22:29;;;;;;;;;;;;;;;9.32;74.65;99065.56;1644152;85;20178;-79
2022/09/28 01:25:23;;;;;;;;;;;;;;;9.29;74.59;99063.94;1584166;88;20182;-79
2022/09/28 01:28:17;;;;;;;;;;;;;;;9.25;74.58;99058.94;1579156;88;20222;-79
2022/09/28 01:31:06;;;;;;;;;;;;;;;9.19;74.57;99056.13;1572605;88;20216;-79
2022/09/28 01:33:54;;;;;;;;;;;;;;;9.13;74.54;99058.92;1574078;89;20199;-79
2022/09/28 01:36:42;;;;;;;;;;;;;;;9.09;74.62;99059.92;1607467;88;20510;-79
2022/09/28 01:39:33;;;;;;;;;;;;;;;9.06;74.58;99054.88;1601126;88;20632;-78
2022/09/28 01:42:21;;;;;;;;;;;;;;;9.01;74.54;99059.34;1603129;88;20254;-78
2022/09/28 01:45:10;;;;;;;;;;;;;;;8.95;74.58;99060.84;1601125;88;20249;-78
2022/09/28 01:47:58;;;;;;;;;;;;;;;8.89;74.57;99061.89;1602494;88;20668;-78
2022/09/28 01:50:45;;;;;;;;;;;;;;;8.85;74.60;99062.89;1592940;89;20539;-78
2022/09/28 01:53:38;;;;;;;;;;;;;;;8.81;74.53;99063.92;1602716;88;20246;-78
2022/09/28 01:56:41;;;;;;;;;;;;;;;8.79;74.53;99062.28;1599831;88;168128;-78
2022/09/28 01:59:27;;;;;;;;;;;;;;;8.76;74.53;99066.25;1576408;86;20126;-79
2022/09/28 02:02:14;;;;;;;;;;;;;;;8.69;74.44;99063.48;1641466;86;20116;-79
2022/09/28 02:05:08;;;;;;;;;;;;;;;8.65;74.54;99070.47;1651831;86;20152;-79
2022/09/28 02:08:14;;;;;;;;;;;;;;;8.61;74.45;99072.75;1617999;86;20187;-79
2022/09/28 02:11:14;;;;;;;;;;;;;;;8.56;74.48;99071.61;1630797;85;20487;-79
2022/09/28 02:14:02;;;;;;;;;;;;;;;8.53;74.47;99065.72;1632148;85;21148;-79
2022/09/28 02:16:49;;;;;;;;;;;;;;;8.47;74.38;99062.89;1637008;85;20218;-79
2022/09/28 02:19:34;;;;;;;;;;;;;;;8.42;74.36;99067.80;1652226;85;20128;-79
2022/09/28 02:22:25;;;;;;;;;;;;;;;8.38;74.42;99067.49;1653449;85;20198;-79
2022/09/28 02:25:13;;;;;;;;;;;;;;;8.33;74.36;99071.95;1639283;85;20251;-79
2022/09/28 02:28:01;;;;;;;;;;;;;;;8.27;74.37;99064.81;1654139;85;20126;-79
2022/09/28 02:30:45;;;;;;;;;;;;;;;8.24;74.39;99073.08;1641636;85;20163;-79
2022/09/28 02:33:35;;;;;;;;;;;;;;;8.19;74.40;99069.80;1649659;85;20333;-79
2022/09/28 02:36:21;;;;;;;;;;;;;;;8.17;74.46;99074.16;1639324;85;20494;-79
2022/09/28 02:39:15;;;;;;;;;;;;;;;8.14;74.45;99076.38;1631472;85;20190;-78
2022/09/28 02:42:09;;;;;;;;;;;;;;;8.11;74.40;99075.19;1656919;86;20195;-78
2022/09/28 02:45:09;;;;;;;;;;;;;;;8.08;74.44;99078.30;1638681;84;20201;-78
2022/09/28 02:48:09;;;;;;;;;;;;;;;8.06;74.41;99077.50;1631545;86;20229;-78
2022/09/28 02:51:00;;;;;;;;;;;;;;;8.00;74.28;99072.53;1634121;86;21080;-78
2022/09/28 02:54:14;;;;;;;;;;;;;;;7.94;74.29;99073.56;1635115;86;20223;-78
2022/09/28 02:57:05;;;;;;;;;;;;;;;7.89;74.33;99077.55;1627387;86;20179;-78
2022/09/28 02:59:59;;;;;;;;;;;;;;;7.85;74.34;99075.12;1656600;86;20207;-78
2022/09/28 03:02:54;;;;;;;;;;;;;;;7.82;74.33;99084.21;1635247;84;20478;-78
2022/09/28 03:05:48;;;;;;;;;;;;;;;7.78;74.28;99080.08;1654264;86;20142;-79
2022/09/28 03:08:36;;;;;;;;;;;;;;;7.74;74.30;99082.34;1640189;86;20194;-79
2022/09/28 03:11:43;;;;;;;;;;;;;;;7.70;74.25;99076.44;1644285;86;20195;-79
2022/09/28 03:14:27;;;;;;;;;;;;;;;7.64;74.25;99072.75;1640538;85;20465;-79
2022/09/28 03:17:12;;;;;;;;;;;;;;;7.54;74.17;99073.90;1646065;86;20243;-79
2022/09/28 03:19:56;;;;;;;;;;;;;;;7.48;74.24;99076.64;1649828;86;20177;-79
2022/09/28 03:22:41;;;;;;;;;;;;;;;7.40;74.14;99074.28;1644701;86;20175;-79
2022/09/28 03:25:26;;;;;;;;;;;;;;;7.29;74.24;99066.02;1634513;86;20509;-79
2022/09/28 03:28:11;;;;;;;;;;;;;;;7.24;74.29;99074.34;1637889;86;20205;-79
2022/09/28 03:30:56;;;;;;;;;;;;;;;7.21;74.35;99076.55;1638558;86;20209;-79
2022/09/28 03:33:40;;;;;;;;;;;;;;;7.21;74.41;99071.41;1627436;86;20208;-79
2022/09/28 03:36:26;;;;;;;;;;;;;;;7.20;74.45;99077.42;1645611;86;20361;-79
2022/09/28 03:39:10;;;;;;;;;;;;;;;7.24;74.53;99079.03;1641718;85;20172;-78
2022/09/28 03:41:56;;;;;;;;;;;;;;;7.28;74.52;99077.19;1650292;85;39155;-78
2022/09/28 03:44:40;;;;;;;;;;;;;;;7.34;74.46;99077.47;1640512;85;20186;-79
2022/09/28 03:47:25;;;;;;;;;;;;;;;7.35;74.48;99071.00;1649544;85;20205;-79
2022/09/28 03:50:10;;;;;;;;;;;;;;;7.34;74.41;99066.73;1639376;85;20554;-79
2022/09/28 03:52:54;;;;;;;;;;;;;;;7.36;74.49;99075.70;1652083;83;20226;-79
2022/09/28 03:55:39;;;;;;;;;;;;;;;7.38;74.52;99070.07;1650821;85;20171;-79
2022/09/28 03:58:24;;;;;;;;;;;;;;;7.40;74.44;99065.73;1640268;85;20483;-79
2022/09/28 04:01:13;;;;;;;;;;;;;;;7.42;74.54;99063.95;1643594;85;20178;-79
2022/09/28 04:03:57;;;;;;;;;;;;;;;7.45;74.47;99070.30;1630809;85;20381;-79
2022/09/28 04:06:42;;;;;;;;;;;;;;;7.45;74.53;99070.30;1645075;85;20224;-78
2022/09/28 04:09:27;;;;;;;;;;;;;;;7.43;74.39;99072.07;1646578;85;20450;-79
2022/09/28 04:12:11;;;;;;;;;;;;;;;7.39;74.52;99070.47;1648748;85;20201;-79
2022/09/28 04:14:56;;;;;;;;;;;;;;;7.40;74.58;99071.72;1648765;85;20158;-79
2022/09/28 04:17:41;;;;;;;;;;;;;;;7.44;74.61;99067.33;1654778;82;20241;-79
2022/09/28 04:20:26;;;;;;;;;;;;;;;7.46;74.65;99068.12;1618996;86;20299;-79
2022/09/28 04:23:11;;;;;;;;;;;;;;;7.50;74.67;99069.73;1624959;87;20223;-79
2022/09/28 04:25:55;;;;;;;;;;;;;;;7.49;74.63;99065.03;1618808;86;20211;-79
2022/09/28 04:31:49;;;;;;;;;;;;;;;7.54;74.80;99063.17;1616910;86;20196;-78
2022/09/28 04:34:34;;;;;;;;;;;;;;;7.49;74.63;99063.74;1608822;86;20197;-78
2022/09/28 04:37:19;;;;;;;;;;;;;;;7.41;74.69;99062.27;1611580;86;20230;-78
2022/09/28 04:40:05;;;;;;;;;;;;;;;7.35;74.91;99064.57;1649475;85;20218;-78
2022/09/28 04:42:54;;;;;;;;;;;;;;;7.39;75.05;99065.33;1644364;85;20144;-78
2022/09/28 04:45:38;;;;;;;;;;;;;;;7.46;75.10;99069.41;1637088;85;20139;-78
2022/09/28 04:48:22;;;;;;;;;;;;;;;7.53;75.05;99070.93;1655047;85;20102;-77
2022/09/28 04:51:07;;;;;;;;;;;;;;;7.60;75.07;99072.00;1654045;83;20130;-78
2022/09/28 04:53:51;;;;;;;;;;;;;;;7.62;74.93;99066.37;1652312;85;20454;-78
2022/09/28 04:56:36;;;;;;;;;;;;;;;7.64;75.04;99067.61;1649675;85;20114;-78
2022/09/28 04:59:20;;;;;;;;;;;;;;;7.69;75.03;99069.61;1651992;83;20110;-79
2022/09/28 05:02:05;;;;;;;;;;;;;;;7.76;75.09;99065.13;1653640;85;20537;-77
2022/09/28 05:04:49;;;;;;;;;;;;;;;7.74;75.04;99063.89;1654063;85;20408;-77
2022/09/28 05:07:34;;;;;;;;;;;;;;;7.81;75.11;99069.66;1668062;85;20134;-77
2022/09/28 05:10:18;;;;;;;;;;;;;;;7.85;75.06;99064.83;1641438;85;20142;-77
2022/09/28 05:13:03;;;;;;;;;;;;;;;7.88;75.05;99062.16;1669815;85;20108;-77
2022/09/28 05:15:50;;;;;;;;;;;;;;;7.88;74.98;99060.88;1678746;85;20541;-77
2022/09/28 05:18:35;;;;;;;;;;;;;;;7.92;75.08;99062.02;1642450;85;20112;-77
2022/09/28 05:21:19;;;;;;;;;;;;;;;7.96;75.05;99059.76;1651066;85;20445;-77
2022/09/28 05:24:06;;;;;;;;;;;;;;;7.94;75.03;99064.11;1651862;85;20120;-77
2022/09/28 05:26:50;;;;;;;;;;;;;;;8.02;75.18;99061.75;1649258;85;20440;-77
2022/09/28 05:29:35;;;;;;;;;;;;;;;8.09;75.18;99051.66;1651566;85;20421;-77
2022/09/28 05:32:19;;;;;;;;;;;;;;;8.11;75.15;99050.73;1641558;85;20438;-77
2022/09/28 05:35:05;;;;;;;;;;;;;;;8.14;75.17;99052.36;1656514;85;20520;-77
2022/09/28 05:37:50;;;;;;;;;;;;;;;8.20;75.22;99057.32;1648668;85;20547;-77
2022/09/28 05:40:34;;;;;;;;;;;;;;;8.26;75.23;99059.27;1658580;85;20133;-77
2022/09/28 05:43:18;;;;;;;;;;;;;;;8.34;75.32;99062.05;1646089;85;20126;-77
2022/09/28 05:46:04;;;;;;;;;;;;;;;8.44;75.31;99067.30;1652096;85;20122;-77
2022/09/28 05:48:50;;;;;;;;;;;;;;;8.50;75.31;99061.95;1644717;85;20534;-77
2022/09/28 05:51:34;;;;;;;;;;;;;;;8.52;75.24;99059.72;1648154;85;20379;-77
2022/09/28 05:54:18;;;;;;;;;;;;;;;8.54;75.32;99063.09;1649007;85;20112;-77
2022/09/28 05:57:05;;;;;;;;;;;;;;;8.59;75.38;99066.36;1663899;85;20572;-77
2022/09/28 05:59:50;;;;;;;;;;;;;;;8.67;75.29;99062.69;1641896;85;20115;-77
2022/09/28 06:02:35;;;;;;;;;;;;;;;8.76;75.41;99067.55;1644671;85;20457;-77
2022/09/28 06:05:19;;;;;;;;;;;;;;;8.89;75.45;99076.07;1657774;85;20133;-77
2022/09/28 06:08:05;;;;;;;;;;;;;;;9.00;75.42;99074.42;1650826;85;20115;-77
2022/09/28 06:10:50;;;;;;;;;;;;;;;9.10;75.44;99067.21;1651409;85;442161;-77
2022/09/28 06:13:34;;;;;;;;;;;;;;;9.16;75.31;99068.29;1637306;85;20123;-77
2022/09/28 06:16:19;;;;;;;;;;;;;;;9.21;75.27;99070.26;1672776;84;20131;-77
2022/09/28 06:19:03;;;;;;;;;;;;;;;9.27;75.33;99061.86;1672616;84;20103;-77
2022/09/28 06:21:48;;;;;;;;;;;;;;;9.36;75.36;99058.56;1670502;84;20475;-77
2022/09/28 06:24:32;;;;;;;;;;;;;;;9.50;75.34;99052.42;1647745;84;20131;-77
2022/09/28 06:27:16;;;;;;;;;;;;;;;9.89;75.48;99050.91;1669701;84;20531;-77
2022/09/28 06:30:01;;;;;;;;;;;;;;;10.75;75.58;99047.50;1665554;84;20135;-77
2022/09/28 06:32:45;;;;;;;;;;;;;;;11.18;75.16;99037.44;1660199;84;20191;-77
2022/09/28 06:35:30;;;;;;;;;;;;;;;11.55;75.13;99036.17;1660589;84;20468;-77
2022/09/28 06:38:15;;;;;;;;;;;;;;;11.87;74.60;99033.44;1669410;84;20113;-77
2022/09/28 06:41:00;;;;;;;;;;;;;;;12.12;74.77;99030.51;1634642;85;20141;-77
2022/09/28 06:43:47;;;;;;;;;;;;;;;12.29;74.67;99034.05;1634189;86;20113;-77
2022/09/28 06:46:31;;;;;;;;;;;;;;;12.37;74.45;99037.95;1636274;86;20553;-77
2022/09/28 06:49:16;;;;;;;;;;;;;;;12.36;74.45;99044.50;1626763;86;20132;-77
2022/09/28 06:52:00;;;;;;;;;;;;;;;12.28;74.45;99042.28;1627980;86;20442;-77
2022/09/28 06:54:45;;;;;;;;;;;;;;;12.19;74.40;99049.20;1627396;84;20142;-77
2022/09/28 06:57:30;;;;;;;;;;;;;;;12.04;74.52;99049.46;1644315;86;20116;-77
2022/09/28 07:00:14;;;;;;;;;;;;;;;12.06;74.42;99046.34;1636895;86;20448;-77
2022/09/28 07:03:00;;;;;;;;;;;;;;;11.99;74.38;99049.29;1635020;86;20167;-77
2022/09/28 07:05:50;;;;;;;;;;;;;;;11.88;74.37;99048.07;1625699;86;20199;-77
2022/09/28 07:08:35;;;;;;;;;;;;;;;11.81;74.43;99051.85;1652502;86;20210;-77
2022/09/28 07:11:20;;;;;;;;;;;;;;;11.73;74.35;99053.91;1635295;86;20162;-77
2022/09/28 07:14:05;;;;;;;;;;;;;;;11.63;74.34;99057.83;1638748;86;20153;-77
2022/09/28 07:16:50;;;;;;;;;;;;;;;11.60;74.43;99054.92;1634710;86;20198;-77
2022/09/28 07:19:35;;;;;;;;;;;;;;;11.61;74.33;99053.17;1632107;86;20202;-77
2022/09/28 07:22:19;;;;;;;;;;;;;;;11.66;74.44;99059.44;1634409;86;20176;-77
2022/09/28 07:25:06;;;;;;;;;;;;;;;11.69;74.37;99053.67;1644126;86;20179;-77
2022/09/28 07:27:52;;;;;;;;;;;;;;;11.67;74.28;99054.65;1635901;86;20232;-77
2022/09/28 07:30:37;;;;;;;;;;;;;;;11.71;74.45;99057.48;1634609;86;20183;-77
2022/09/28 07:33:30;;;;;;;;;;;;;;;11.77;74.40;99046.42;1603080;87;20208;-77
2022/09/28 07:36:09;;;;;;;;;;;;;;;12.15;74.58;99048.50;1600204;87;20550;-77
2022/09/28 07:38:54;;;;;;;;;;;;;;;12.45;74.20;99049.25;1607217;87;20229;-77
2022/09/28 07:41:40;;;;;;;;;;;;;;;12.46;74.03;99050.92;1652298;85;20166;-77
2022/09/28 07:44:25;;;;;;;;;;;;;;;12.44;74.00;99048.86;1639533;85;20194;-77
2022/09/28 07:47:09;;;;;;;;;;;;;;;12.35;73.90;99049.30;1634498;85;20686;-77
2022/09/28 07:49:57;;;;;;;;;;;;;;;12.15;73.84;99053.68;1637155;85;20895;-77
2022/09/28 07:52:43;;;;;;;;;;;;;;;12.14;74.04;99047.28;1656503;85;20548;-77
2022/09/28 07:55:27;;;;;;;;;;;;;;;12.32;74.12;99051.59;1647170;85;20364;-77
2022/09/28 07:58:12;;;;;;;;;;;;;;;12.43;74.00;99046.73;1642233;85;20180;-77
2022/09/28 08:00:59;;;;;;;;;;;;;;;12.58;73.92;99048.54;1644666;85;20194;-77
2022/09/28 08:03:44;;;;;;;;;;;;;;;12.81;74.00;99038.78;1651740;85;20215;-77
2022/09/28 08:06:30;;;;;;;;;;;;;;;13.19;73.82;99044.17;1633811;87;20410;-77
2022/09/28 08:09:14;;;;;;;;;;;;;;;13.33;73.59;99050.41;1640955;85;20129;-77
2022/09/28 08:11:59;;;;;;;;;;;;;;;13.23;73.48;99048.28;1637067;85;20190;-77
2022/09/28 08:14:45;;;;;;;;;;;;;;;13.15;73.72;99055.59;1648514;86;20203;-77
2022/09/28 08:17:30;;;;;;;;;;;;;;;13.07;73.73;99055.14;1638065;86;20214;-77
2022/09/28 08:23:19;;;;;;;;;;;;;;;13.09;73.65;99057.20;1631898;86;20202;-77
2022/09/28 08:26:04;;;;;;;;;;;;;;;13.04;73.58;99062.25;1647034;86;20179;-77
2022/09/28 08:28:49;;;;;;;;;;;;;;;13.00;73.71;99065.45;1620592;86;20185;-77
2022/09/28 08:31:33;;;;;;;;;;;;;;;13.03;73.78;99061.86;1644963;86;20210;-77
2022/09/28 08:34:18;;;;;;;;;;;;;;;13.03;73.64;99064.45;1643960;86;20189;-77
2022/09/28 08:37:04;;;;;;;;;;;;;;;12.99;73.50;99059.91;1628694;86;20212;-77
2022/09/28 08:39:49;;;;;;;;;;;;;;;12.99;73.58;99061.67;1637535;86;20577;-77
2022/09/28 08:42:41;;;;;;;;;;;;;;;12.97;73.62;99061.75;1624021;85;20180;-77
2022/09/28 08:45:34;;;;;;;;;;;;;;;12.93;73.57;99063.66;1632664;86;20189;-77
2022/09/28 08:48:46;;;;;;;;;;;;;;;12.92;73.59;99063.73;1637069;86;20230;-77
2022/09/28 08:51:34;;;;;;;;;;;;;;;12.91;73.55;99060.76;1639931;85;20142;-77
2022/09/28 08:54:45;;;;;;;;;;;;;;;12.94;73.57;99060.60;1645001;86;20200;-77
2022/09/28 08:57:40;;;;;;;;;;;;;;;13.02;73.51;99061.48;1616394;85;20628;-77
2022/09/28 09:00:48;;;;;;;;;;;;;;;13.02;73.45;99057.59;1631581;86;20540;-77
2022/09/28 09:03:40;;;;;;;;;;;;;;;13.19;73.57;99050.66;1632804;86;20177;-77
2022/09/28 09:06:36;;;;;;;;;;;;;;;13.35;73.48;99046.81;1621716;85;20502;-77
2022/09/28 09:09:50;;;;;;;;;;;;;;;13.45;73.24;99050.60;1628073;86;20756;-77
2022/09/28 09:12:50;;;;;;;;;;;;;;;13.57;73.37;99040.83;1635371;86;20238;-77
2022/09/28 09:15:58;;;;;;;;;;;;;;;13.69;73.26;99040.64;1647203;84;20605;-77
2022/09/28 09:19:11;;;;;;;;;;;;;;;13.69;73.12;99050.19;1616529;86;20671;-77
2022/09/28 09:22:04;;;;;;;;;;;;;;;13.71;73.17;99049.65;1622544;86;20272;-77
2022/09/28 09:24:50;;;;;;;;;;;;;;;13.83;72.98;99042.49;1622997;86;20216;-77
2022/09/28 09:27:58;;;;;;;;;;;;;;;13.93;72.91;99040.23;1614488;86;20618;-77
2022/09/28 09:30:52;;;;;;;;;;;;;;;13.92;72.83;99042.00;1624290;86;20138;-77
2022/09/28 09:33:50;;;;;;;;;;;;;;;13.84;72.61;99041.11;1615981;86;20126;-77
2022/09/28 09:36:41;;;;;;;;;;;;;;;13.74;72.66;99041.69;1615791;86;20150;-77
2022/09/28 09:39:46;;;;;;;;;;;;;;;13.70;72.60;99034.98;1633013;86;20176;-77
2022/09/28 09:42:53;;;;;;;;;;;;;;;13.74;72.60;99037.34;1627275;86;20136;-77
2022/09/28 09:45:48;;;;;;;;;;;;;;;13.82;72.64;99030.42;1627653;86;20168;-77
2022/09/28 09:48:47;;;;;;;;;;;;;;;13.84;72.68;99035.08;1627314;86;20126;-77
2022/09/28 09:51:42;;;;;;;;;;;;;;;13.86;72.57;99026.28;1623763;86;20459;-77
2022/09/28 09:54:51;;;;;;;;;;;;;;;13.86;72.52;99028.04;1624318;86;20997;-77
2022/09/28 09:57:43;;;;;;;;;;;;;;;13.93;72.51;99037.17;1609674;86;20198;-77
2022/09/28 10:00:28;;;;;;;;;;;;;;;13.97;72.47;99034.78;1615313;85;20937;-77
2022/09/28 10:03:22;;;;;;;;;;;;;;;13.97;72.31;99031.35;1618075;86;20210;-77
2022/09/28 10:06:10;;;;;;;;;;;;;;;13.99;72.37;99026.91;1621573;86;20188;-77
2022/09/28 10:09:04;;;;;;;;;;;;;;;13.97;72.24;99029.59;1623395;86;20187;-78
2022/09/28 10:11:50;;;;;;;;;;;;;;;13.90;72.08;99032.98;1609109;86;20519;-78
2022/09/28 10:14:35;;;;;;;;;;;;;;;13.89;72.08;99023.97;1630028;86;20499;-78
2022/09/28 10:17:25;;;;;;;;;;;;;;;13.89;72.05;99033.91;1637858;86;20450;-78
2022/09/28 10:20:12;;;;;;;;;;;;;;;13.85;72.03;99027.66;1624448;86;20448;-77
2022/09/28 10:23:00;;;;;;;;;;;;;;;13.82;72.01;99027.83;1621765;86;20480;-77
2022/09/28 10:25:45;;;;;;;;;;;;;;;13.78;71.99;99020.66;1654173;85;20269;-77
2022/09/28 10:28:37;;;;;;;;;;;;;;;13.76;71.93;99016.47;1654238;86;20179;-77
2022/09/28 10:31:37;;;;;;;;;;;;;;;13.72;71.79;99011.91;1627807;86;20493;-77
2022/09/28 10:34:27;;;;;;;;;;;;;;;13.71;71.88;99007.63;1661951;86;20138;-77
2022/09/28 10:37:12;;;;;;;;;;;;;;;13.66;71.69;99010.94;1621974;86;20232;-78
2022/09/28 10:39:58;;;;;;;;;;;;;;;13.65;71.77;99013.16;1641860;85;20494;-77
2022/09/28 10:42:42;;;;;;;;;;;;;;;13.61;71.65;99012.10;1641310;86;20544;-77
2022/09/28 10:45:30;;;;;;;;;;;;;;;13.53;71.66;99007.31;1635066;85;20566;-78
2022/09/28 10:48:22;;;;;;;;;;;;;;;13.50;71.72;99007.05;1643431;84;20466;-78
2022/09/28 10:51:07;;;;;;;;;;;;;;;13.53;71.77;99006.86;1643553;85;20183;-77
2022/09/28 10:54:03;;;;;;;;;;;;;;;13.48;71.46;99005.46;1655231;85;20199;-77
2022/09/28 10:56:48;;;;;;;;;;;;;;;13.47;71.52;99005.08;1660835;85;20974;-77
2022/09/28 10:59:39;;;;;;;;;;;;;;;13.54;71.55;99001.20;1652464;85;20207;-77
2022/09/28 11:02:26;;;;;;;;;;;;;;;13.69;71.52;99000.38;1656185;85;20191;-77
2022/09/28 11:05:20;;;;;;;;;;;;;;;13.84;71.30;98998.24;1664648;85;20141;-77
2022/09/28 11:08:06;;;;;;;;;;;;;;;13.91;71.24;98997.45;1647741;85;20630;-77
2022/09/28 11:11:04;;;;;;;;;;;;;;;13.94;71.06;98993.84;1644197;85;20157;-77
2022/09/28 11:14:04;;;;;;;;;;;;;;;13.95;70.78;98999.41;1658207;85;20209;-77
2022/09/28 11:16:46;;;;;;;;;;;;;;;13.83;70.69;98999.62;1648041;85;20186;-77
2022/09/28 11:19:31;;;;;;;;;;;;;;;13.82;70.91;98997.48;1669344;84;20235;-77
2022/09/28 11:22:35;;;;;;;;;;;;;;;13.84;70.38;98989.61;1650208;85;20463;-77
2022/09/28 11:25:23;;;;;;;;;;;;;;;13.88;71.09;98995.85;1637008;85;20185;-77
2022/09/28 11:28:11;;;;;;;;;;;;;;;14.03;70.79;98992.03;1645332;85;20191;-77
2022/09/28 11:30:56;;;;;;;;;;;;;;;14.11;70.80;98989.34;1651826;85;20275;-77
2022/09/28 11:33:42;;;;;;;;;;;;;;;14.19;70.72;98988.91;1666610;85;20544;-77
2022/09/28 11:36:42;;;;;;;;;;;;;;;14.28;70.46;98987.55;1644170;85;20113;-77
2022/09/28 11:39:33;;;;;;;;;;;;;;;14.32;70.44;98983.39;1626379;85;20538;-77
2022/09/28 11:42:36;;;;;;;;;;;;;;;14.30;70.35;98987.84;1636017;85;20447;-77
2022/09/28 11:45:36;;;;;;;;;;;;;;;14.25;70.42;98985.97;1631514;86;20132;-77
2022/09/28 11:48:27;;;;;;;;;;;;;;;14.21;70.36;98987.06;1632453;86;20129;-77
2022/09/28 11:51:17;;;;;;;;;;;;;;;14.19;70.45;98988.45;1629788;85;20129;-77
2022/09/28 11:54:13;;;;;;;;;;;;;;;14.18;70.45;98988.54;1638487;86;20142;-77
2022/09/28 11:56:56;;;;;;;;;;;;;;;14.12;70.27;98983.69;1529483;86;9999910;-77
2022/09/28 12:00:01;;;;;;;;;;;;;;;14.03;70.24;98984.23;1619543;86;20146;-77
2022/09/28 12:02:51;;;;;;;;;;;;;;;13.94;70.22;98982.14;1640622;86;20145;-77
2022/09/28 12:05:39;;;;;;;;;;;;;;;13.88;70.21;98988.06;1646253;86;20454;-78
2022/09/28 12:08:29;;;;;;;;;;;;;;;13.82;70.27;98988.40;1655171;86;20351;-77
2022/09/28 12:11:19;;;;;;;;;;;;;;;13.76;70.20;98986.13;1637277;86;20190;-77
2022/09/28 12:14:08;;;;;;;;;;;;;;;13.74;70.28;98983.24;1637842;86;20217;-77
2022/09/28 12:16:59;;;;;;;;;;;;;;;13.75;70.27;98983.62;1647248;86;20197;-77
2022/09/28 12:20:10;;;;;;;;;;;;;;;13.76;70.12;98981.40;1581474;87;20277;-78
2022/09/28 12:23:01;;;;;;;;;;;;;;;13.74;70.10;98982.78;1622906;87;20194;-78
2022/09/28 12:25:52;;;;;;;;;;;;;;;13.75;70.14;98979.72;1605379;87;20242;-78
2022/09/28 12:28:46;;;;;;;;;;;;;;;13.71;69.83;98973.02;1609899;87;20205;-77
2022/09/28 12:31:34;;;;;;;;;;;;;;;13.64;69.94;98976.88;1615706;87;20565;-78
2022/09/28 12:34:20;;;;;;;;;;;;;;;13.59;69.98;98974.06;1608661;87;20212;-78
2022/09/28 12:37:14;;;;;;;;;;;;;;;13.55;69.91;98970.42;1635555;86;20224;-78
2022/09/28 12:40:05;;;;;;;;;;;;;;;13.51;69.96;98971.08;1642254;86;20242;-77
2022/09/28 12:43:00;;;;;;;;;;;;;;;13.49;69.97;98970.78;1663128;84;20228;-78
2022/09/28 12:46:08;;;;;;;;;;;;;;;13.51;69.99;98977.57;1628002;85;20350;-77
2022/09/28 12:49:02;;;;;;;;;;;;;;;13.55;69.89;98972.55;1649611;84;20235;-77
2022/09/28 12:51:53;;;;;;;;;;;;;;;13.59;69.89;98971.47;1649278;85;20659;-77
2022/09/28 12:54:49;;;;;;;;;;;;;;;13.64;69.91;98971.22;1672250;84;20519;-77
2022/09/28 12:57:41;;;;;;;;;;;;;;;13.66;69.78;98965.48;1673627;84;20187;-77
2022/09/28 13:00:31;;;;;;;;;;;;;;;13.67;69.77;98961.95;1678900;84;20505;-78
2022/09/28 13:03:40;;;;;;;;;;;;;;;13.71;69.70;98966.53;1684595;83;20213;-77
2022/09/28 13:06:44;;;;;;;;;;;;;;;13.75;69.67;98962.84;1671525;84;20212;-77
2022/09/28 13:09:33;;;;;;;;;;;;;;;13.76;69.74;98962.75;1639517;85;20191;-77
2022/09/28 13:12:24;;;;;;;;;;;;;;;13.77;69.66;98960.53;1665228;84;20181;-77
2022/09/28 13:15:18;;;;;;;;;;;;;;;13.74;69.53;98964.59;1633695;86;20190;-77
2022/09/28 13:18:21;;;;;;;;;;;;;;;13.72;69.52;98963.01;1646745;86;20216;-77
2022/09/28 13:21:13;;;;;;;;;;;;;;;13.69;69.39;98959.28;1672991;84;20212;-77
2022/09/28 13:23:59;;;;;;;;;;;;;;;13.64;69.36;98964.72;1646430;85;20216;-77
2022/09/28 13:26:45;;;;;;;;;;;;;;;13.58;69.21;98963.30;1646953;85;20181;-77
2022/09/28 13:29:32;;;;;;;;;;;;;;;13.53;69.29;98961.41;1649927;85;20133;-77
2022/09/28 13:32:17;;;;;;;;;;;;;;;13.51;69.40;98956.80;1661521;85;20450;-77
2022/09/28 13:35:02;;;;;;;;;;;;;;;13.49;69.36;98955.20;1647009;85;20110;-77
2022/09/28 13:37:50;;;;;;;;;;;;;;;13.48;69.34;98954.83;1651806;85;20431;-77
2022/09/28 13:41:10;;;;;;;;;;;;;;;13.46;69.27;98956.66;1661885;85;20135;-76
2022/09/28 13:44:15;;;;;;;;;;;;;;;13.40;69.26;98951.34;1658403;85;20115;-76
2022/09/28 13:47:21;;;;;;;;;;;;;;;13.37;69.33;98948.91;1647164;85;20130;-76
2022/09/28 13:50:34;;;;;;;;;;;;;;;13.36;69.33;98950.30;1672406;85;20132;-76
2022/09/28 13:53:41;;;;;;;;;;;;;;;13.35;69.29;98948.62;1672528;85;20973;-76
2022/09/28 13:56:47;;;;;;;;;;;;;;;13.32;69.34;98947.02;1655619;85;20229;-76
2022/09/28 13:59:35;;;;;;;;;;;;;;;13.28;69.34;98957.19;1647547;85;20186;-77
2022/09/28 14:02:42;;;;;;;;;;;;;;;13.19;69.22;98954.63;1634112;85;20568;-77
2022/09/28 14:05:33;;;;;;;;;;;;;;;13.05;69.18;98970.51;1647006;85;20201;-77
2022/09/28 14:08:39;;;;;;;;;;;;;;;12.78;68.97;98982.72;1644999;85;20216;-77
2022/09/28 14:11:38;;;;;;;;;;;;;;;12.46;69.34;98977.88;1637877;85;20224;-77
2022/09/28 14:14:26;;;;;;;;;;;;;;;12.30;69.65;98966.59;1650080;85;20201;-77
2022/09/28 14:17:23;;;;;;;;;;;;;;;12.22;69.72;98963.08;1650759;85;20190;-77
2022/09/28 14:20:11;;;;;;;;;;;;;;;12.04;69.71;98968.31;1650615;85;20213;-77
2022/09/28 14:23:12;;;;;;;;;;;;;;;11.84;69.80;98974.02;1649431;85;20154;-77
2022/09/28 14:26:00;;;;;;;;;;;;;;;11.73;69.91;98972.35;1669895;84;20213;-77
2022/09/28 14:29:11;;;;;;;;;;;;;;;11.66;70.02;98976.13;1614527;85;20690;-77
2022/09/28 14:31:57;;;;;;;;;;;;;;;11.62;70.06;98968.12;1639238;85;20310;-77
2022/09/28 14:34:44;;;;;;;;;;;;;;;11.58;70.12;98968.72;1638186;85;20235;-77
2022/09/28 14:41:09;;;;;;;;;;;;;;;11.57;70.13;98967.50;1649581;85;20222;-77
2022/09/28 14:44:09;;;;;;;;;;;;;;;11.55;70.07;98968.86;1663313;84;20261;-77
2022/09/28 14:46:57;;;;;;;;;;;;;;;11.54;70.13;98965.05;1663407;85;20364;-77
2022/09/28 14:49:43;;;;;;;;;;;;;;;11.51;70.25;98974.25;1654209;84;20183;-77
2022/09/28 14:52:39;;;;;;;;;;;;;;;11.47;70.29;98966.24;1649697;85;20589;-77
2022/09/28 14:55:34;;;;;;;;;;;;;;;11.48;70.37;98969.22;1662485;85;20175;-77
2022/09/28 14:58:25;;;;;;;;;;;;;;;11.45;70.42;98967.61;1659327;85;20273;-77